createdAt,value
2019-02-12T00:01:34.171Z,3.60
2019-02-12T00:04:02.579Z,3.60
2019-02-12T00:06:29.646Z,3.60
2019-02-12T00:08:56.981Z,3.60
2019-02-12T00:11:24.172Z,3.50
2019-02-12T00:13:51.513Z,3.50
2019-02-12T00:16:18.907Z,3.50
2019-02-12T00:18:46.170Z,3.60
2019-02-12T00:21:13.559Z,3.60
2019-02-12T00:23:40.776Z,3.70
2019-02-12T00:26:08.071Z,3.70
2019-02-12T00:28:35.418Z,3.70
2019-02-12T00:31:02.893Z,3.80
2019-02-12T00:33:30.220Z,3.80
2019-02-12T00:35:57.490Z,3.80
2019-02-12T00:38:24.956Z,3.80
2019-02-12T00:40:52.267Z,3.80
2019-02-12T00:43:19.439Z,3.80
2019-02-12T00:45:46.668Z,3.90
2019-02-12T00:48:13.876Z,3.90
2019-02-12T00:50:41.171Z,3.90
2019-02-12T00:53:08.357Z,3.90
2019-02-12T00:55:35.787Z,4.00
2019-02-12T00:58:03.091Z,3.90
2019-02-12T01:00:30.284Z,3.90
2019-02-12T01:02:57.562Z,4.00
2019-02-12T01:05:25.008Z,4.00
2019-02-12T01:07:52.287Z,4.10
2019-02-12T01:10:19.591Z,4.10
2019-02-12T01:12:46.878Z,4.10
2019-02-12T01:15:15.097Z,4.00
2019-02-12T01:17:42.494Z,4.00
2019-02-12T01:20:11.023Z,4.00
2019-02-12T01:22:38.434Z,4.00
2019-02-12T01:25:06.548Z,4.00
2019-02-12T01:27:33.840Z,4.00
2019-02-12T01:30:01.187Z,3.90
2019-02-12T01:32:28.560Z,4.00
2019-02-12T01:34:55.878Z,4.00
2019-02-12T01:37:23.287Z,4.00
2019-02-12T01:39:50.598Z,4.00
2019-02-12T01:42:17.985Z,4.00
2019-02-12T01:44:45.287Z,4.10
2019-02-12T01:47:12.499Z,4.10
2019-02-12T01:49:39.815Z,4.10
2019-02-12T01:52:07.048Z,4.20
2019-02-12T01:54:34.218Z,4.20
2019-02-12T01:57:01.481Z,4.20
2019-02-12T01:59:28.762Z,4.20
2019-02-12T02:01:55.882Z,4.20
2019-02-12T02:04:23.035Z,4.20
2019-02-12T02:06:50.166Z,4.20
2019-02-12T02:12:00.105Z,4.10
2019-02-12T02:14:29.978Z,4.10
2019-02-12T02:16:59.779Z,4.10
2019-02-12T02:19:29.488Z,4.10
2019-02-12T02:21:59.336Z,4.10
2019-02-12T02:24:29.120Z,4.10
2019-02-12T02:26:58.949Z,4.10
2019-02-12T02:29:28.624Z,4.10
2019-02-12T02:31:58.300Z,4.10
2019-02-12T02:34:28.058Z,4.10
2019-02-12T02:36:57.860Z,4.10
2019-02-12T02:39:27.610Z,4.10
2019-02-12T02:41:57.342Z,4.20
2019-02-12T02:44:27.040Z,4.10
2019-02-12T02:46:56.811Z,4.20
2019-02-12T02:49:26.662Z,4.20
2019-02-12T02:51:56.435Z,4.20
2019-02-12T02:54:31.207Z,4.20
2019-02-12T02:57:01.054Z,4.20
2019-02-12T02:59:30.891Z,4.20
2019-02-12T03:02:00.636Z,4.20
2019-02-12T03:04:30.464Z,4.30
2019-02-12T03:07:00.271Z,4.20
2019-02-12T03:09:30.051Z,4.20
2019-02-12T03:11:59.746Z,4.20
2019-02-12T03:14:30.576Z,4.10
2019-02-12T03:17:00.346Z,4.20
2019-02-12T03:19:30.034Z,4.20
2019-02-12T03:22:03.756Z,4.20
2019-02-12T03:24:31.257Z,4.30
2019-02-12T03:27:00.971Z,4.30
2019-02-12T03:29:30.644Z,4.40
2019-02-12T03:32:00.551Z,4.40
2019-02-12T03:34:30.282Z,4.40
2019-02-12T03:37:00.118Z,4.50
2019-02-12T03:39:29.905Z,4.50
2019-02-12T03:41:59.639Z,4.50
2019-02-12T03:44:29.426Z,4.50
2019-02-12T03:46:59.264Z,4.50
2019-02-12T03:49:28.983Z,4.50
2019-02-12T03:51:58.831Z,4.50
2019-02-12T03:54:28.546Z,4.40
2019-02-12T03:56:58.296Z,4.40
2019-02-12T03:59:28.219Z,4.40
2019-02-12T04:01:57.983Z,4.40
2019-02-12T04:04:27.754Z,4.40
2019-02-12T04:06:57.539Z,4.40
2019-02-12T04:09:27.353Z,4.40
2019-02-12T04:11:57.146Z,4.40
2019-02-12T04:14:27.035Z,4.40
2019-02-12T04:16:56.798Z,4.40
2019-02-12T04:19:26.563Z,4.40
2019-02-12T04:21:56.263Z,4.40
2019-02-12T04:24:25.964Z,4.40
2019-02-12T04:26:55.722Z,4.40
2019-02-12T04:29:25.528Z,4.40
2019-02-12T04:31:55.205Z,4.40
2019-02-12T04:34:24.965Z,4.50
2019-02-12T04:36:54.744Z,4.40
2019-02-12T04:39:24.696Z,4.40
2019-02-12T04:41:54.369Z,4.40
2019-02-12T04:44:24.081Z,4.30
2019-02-12T04:46:53.917Z,4.30
2019-02-12T04:49:23.755Z,4.30
2019-02-12T04:51:53.642Z,4.20
2019-02-12T04:54:23.364Z,4.20
2019-02-12T04:56:53.197Z,4.20
2019-02-12T04:59:22.930Z,4.20
2019-02-12T05:01:52.608Z,4.10
2019-02-12T05:04:22.370Z,4.20
2019-02-12T05:06:52.134Z,4.20
2019-02-12T05:09:23.001Z,4.20
2019-02-12T05:11:55.383Z,4.20
2019-02-12T05:14:26.644Z,4.20
2019-02-12T05:16:56.329Z,4.20
2019-02-12T05:19:26.031Z,4.20
2019-02-12T05:21:55.949Z,4.20
2019-02-12T05:24:25.646Z,4.20
2019-02-12T05:26:55.342Z,4.20
2019-02-12T05:29:25.090Z,4.20
2019-02-12T05:31:54.878Z,4.20
2019-02-12T05:34:24.762Z,4.10
2019-02-12T05:36:55.487Z,4.10
2019-02-12T05:39:25.263Z,4.20
2019-02-12T05:41:55.095Z,4.20
2019-02-12T05:44:24.798Z,4.20
2019-02-12T05:46:54.572Z,4.20
2019-02-12T05:49:24.364Z,4.20
2019-02-12T05:51:54.072Z,4.20
2019-02-12T05:54:23.926Z,4.20
2019-02-12T05:56:53.700Z,4.20
2019-02-12T05:59:23.507Z,4.20
2019-02-12T06:01:53.242Z,4.10
2019-02-12T06:04:22.984Z,4.10
2019-02-12T06:06:52.759Z,4.10
2019-02-12T06:09:22.561Z,4.10
2019-02-12T06:11:52.219Z,4.10
2019-02-12T06:14:21.929Z,4.10
2019-02-12T06:16:51.826Z,4.00
2019-02-12T06:19:21.597Z,4.00
2019-02-12T06:21:51.366Z,4.00
2019-02-12T06:24:21.592Z,4.00
2019-02-12T06:26:51.270Z,4.10
2019-02-12T06:29:21.067Z,4.10
2019-02-12T06:31:50.775Z,4.10
2019-02-12T06:34:20.605Z,4.10
2019-02-12T06:36:50.466Z,4.10
2019-02-12T06:39:20.321Z,4.10
2019-02-12T06:41:50.151Z,4.10
2019-02-12T06:44:19.954Z,4.10
2019-02-12T06:46:49.825Z,4.10
2019-02-12T06:49:19.567Z,4.10
2019-02-12T06:51:49.312Z,4.20
2019-02-12T06:54:19.171Z,4.20
2019-02-12T06:56:49.106Z,4.20
2019-02-12T06:59:19.038Z,4.20
2019-02-12T07:01:48.903Z,4.30
2019-02-12T07:04:21.975Z,4.20
2019-02-12T07:07:23.216Z,4.20
2019-02-12T07:09:56.759Z,4.20
2019-02-12T07:13:10.930Z,4.30
2019-02-12T07:15:55.311Z,4.30
2019-02-12T07:18:54.588Z,4.20
2019-02-12T07:22:15.010Z,4.20
2019-02-12T07:25:29.199Z,4.20
2019-02-12T07:28:42.346Z,4.30
2019-02-12T07:32:27.107Z,4.40
2019-02-12T07:35:53.674Z,4.30
2019-02-12T07:38:59.387Z,4.30
2019-02-12T07:41:49.863Z,4.30
2019-02-12T07:44:43.055Z,4.40
2019-02-12T07:47:34.643Z,4.50
2019-02-12T07:50:54.971Z,4.50
2019-02-12T07:53:45.190Z,4.60
2019-02-12T07:56:43.920Z,4.60
2019-02-12T07:59:34.654Z,4.70
2019-02-12T08:02:40.865Z,4.60
2019-02-12T08:05:55.123Z,4.60
2019-02-12T08:09:05.737Z,4.60
2019-02-12T08:12:34.841Z,4.60
2019-02-12T08:15:27.587Z,4.60
2019-02-12T08:18:32.001Z,4.40
2019-02-12T08:21:23.991Z,4.30
2019-02-12T08:24:38.203Z,4.40
2019-02-12T08:27:51.199Z,4.60
2019-02-12T08:30:45.940Z,4.70
2019-02-12T08:33:43.311Z,4.80
2019-02-12T08:36:22.596Z,4.90
2019-02-12T08:39:38.819Z,4.80
2019-02-12T08:42:51.455Z,4.80
2019-02-12T08:45:56.559Z,4.90
2019-02-12T08:49:13.888Z,5.00
2019-02-12T08:52:20.093Z,5.00
2019-02-12T08:55:22.052Z,5.10
2019-02-12T08:58:35.931Z,5.00
2019-02-12T09:01:29.788Z,5.10
2019-02-12T09:04:33.085Z,5.10
2019-02-12T09:07:36.211Z,4.90
2019-02-12T09:10:42.255Z,4.90
2019-02-12T09:13:40.813Z,4.80
2019-02-12T09:16:50.843Z,4.80
2019-02-12T09:19:49.548Z,4.80
2019-02-12T09:23:06.091Z,4.80
2019-02-12T09:26:32.047Z,4.90
2019-02-12T09:29:49.330Z,5.00
2019-02-12T09:32:44.127Z,5.00
2019-02-12T09:35:51.233Z,5.20
2019-02-12T09:38:52.719Z,5.30
2019-02-12T09:41:33.474Z,5.30
2019-02-12T09:44:54.066Z,5.20
2019-02-12T09:48:10.253Z,5.10
2019-02-12T09:51:23.599Z,5.10
2019-02-12T09:54:24.310Z,5.10
2019-02-12T09:57:38.926Z,5.10
2019-02-12T10:00:38.576Z,5.10
2019-02-12T10:03:42.058Z,5.30
2019-02-12T10:06:54.501Z,5.40
2019-02-12T10:09:47.244Z,5.40
2019-02-12T10:12:49.718Z,5.40
2019-02-12T10:15:56.470Z,5.50
2019-02-12T10:18:52.899Z,5.60
2019-02-12T10:22:07.056Z,5.80
2019-02-12T10:25:10.826Z,5.80
2019-02-12T10:28:23.768Z,5.80
2019-02-12T10:31:17.175Z,5.70
2019-02-12T10:33:47.970Z,5.80
2019-02-12T10:36:17.796Z,5.80
2019-02-12T10:38:49.393Z,5.70
2019-02-12T10:41:19.212Z,5.70
2019-02-12T10:43:49.041Z,5.80
2019-02-12T10:46:18.874Z,5.80
2019-02-12T10:48:48.731Z,5.80
2019-02-12T10:51:18.512Z,5.90
2019-02-12T10:53:48.332Z,5.90
2019-02-12T10:56:18.215Z,6.00
2019-02-12T10:58:48.047Z,6.00
2019-02-12T11:01:17.912Z,6.00
2019-02-12T11:03:47.695Z,6.00
2019-02-12T11:06:17.487Z,6.10
2019-02-12T11:08:47.367Z,6.20
2019-02-12T11:11:17.285Z,6.20
2019-02-12T11:13:47.371Z,6.30
2019-02-12T11:16:17.151Z,6.30
2019-02-12T11:18:47.095Z,6.40
2019-02-12T11:21:17.002Z,6.40
2019-02-12T11:23:47.039Z,6.50
2019-02-12T11:26:16.973Z,6.50
2019-02-12T11:28:46.846Z,6.30
2019-02-12T11:31:16.769Z,6.20
2019-02-12T11:33:46.630Z,6.30
2019-02-12T11:36:16.549Z,6.30
2019-02-12T11:38:46.344Z,6.30
2019-02-12T11:41:16.268Z,6.20
2019-02-12T11:43:47.379Z,6.20
2019-02-12T11:46:17.335Z,6.10
2019-02-12T11:48:47.106Z,6.10
2019-02-12T11:51:16.898Z,6.30
2019-02-12T11:53:46.674Z,6.30
2019-02-12T11:56:16.430Z,6.30
2019-02-12T11:58:46.306Z,6.40
2019-02-12T12:01:19.898Z,6.60
2019-02-12T12:03:49.679Z,6.70
2019-02-12T12:06:19.410Z,6.80
2019-02-12T12:08:50.227Z,6.90
2019-02-12T12:11:20.076Z,7.00
2019-02-12T12:13:50.962Z,6.90
2019-02-12T12:16:20.929Z,7.00
2019-02-12T12:18:50.752Z,7.00
2019-02-12T12:21:20.559Z,7.10
2019-02-12T12:23:50.322Z,7.00
2019-02-12T12:26:20.083Z,6.90
2019-02-12T12:28:50.823Z,7.10
2019-02-12T12:31:20.764Z,7.10
2019-02-12T12:33:50.599Z,7.10
2019-02-12T12:36:20.343Z,7.00
2019-02-12T12:38:50.282Z,7.10
2019-02-12T12:41:20.218Z,7.20
2019-02-12T12:43:49.998Z,7.30
2019-02-12T12:46:19.878Z,7.50
2019-02-12T12:48:49.711Z,7.60
2019-02-12T12:51:19.531Z,7.50
2019-02-12T12:54:08.484Z,7.30
2019-02-12T12:56:38.279Z,7.30
2019-02-12T12:59:08.012Z,7.60
2019-02-12T13:01:37.914Z,7.80
2019-02-12T13:04:08.882Z,7.70
2019-02-12T13:06:38.615Z,7.50
2019-02-12T13:09:08.518Z,7.40
2019-02-12T13:11:38.338Z,7.50
2019-02-12T13:14:08.194Z,7.60
2019-02-12T13:16:38.000Z,7.60
2019-02-12T13:19:08.485Z,7.60
2019-02-12T13:21:38.654Z,7.40
2019-02-12T13:24:08.453Z,7.40
2019-02-12T13:26:38.191Z,7.50
2019-02-12T13:29:08.071Z,7.60
2019-02-12T13:31:38.064Z,7.60
2019-02-12T13:34:07.915Z,7.70
2019-02-12T13:36:37.689Z,7.70
2019-02-12T13:39:07.576Z,7.60
2019-02-12T13:41:37.443Z,7.70
2019-02-12T13:44:07.199Z,7.60
2019-02-12T13:46:36.917Z,7.60
2019-02-12T13:49:06.876Z,7.80
2019-02-12T13:51:36.748Z,7.80
2019-02-12T13:54:07.523Z,7.80
2019-02-12T13:56:37.270Z,8.00
2019-02-12T13:59:07.147Z,7.80
2019-02-12T14:01:36.935Z,7.60
2019-02-12T14:04:06.740Z,7.60
2019-02-12T14:06:36.808Z,7.70
2019-02-12T14:09:06.929Z,7.80
2019-02-12T14:11:36.928Z,7.70
2019-02-12T14:14:06.681Z,7.50
2019-02-12T14:16:36.500Z,7.50
2019-02-12T14:19:06.502Z,7.60
2019-02-12T14:21:36.379Z,7.40
2019-02-12T14:24:06.183Z,7.30
2019-02-12T14:26:35.975Z,7.30
2019-02-12T14:29:06.687Z,7.30
2019-02-12T14:31:36.527Z,7.20
2019-02-12T14:34:06.487Z,7.30
2019-02-12T14:36:36.284Z,7.30
2019-02-12T14:39:06.387Z,7.40
2019-02-12T14:41:36.087Z,7.50
2019-02-12T14:44:06.050Z,7.50
2019-02-12T14:46:35.769Z,7.50
2019-02-12T14:49:05.734Z,7.50
2019-02-12T14:51:35.835Z,7.50
2019-02-12T14:54:07.232Z,7.50
2019-02-12T14:56:37.270Z,7.50
2019-02-12T14:59:07.103Z,7.40
2019-02-12T15:01:36.922Z,7.40
2019-02-12T15:04:06.724Z,7.40
2019-02-12T15:06:36.615Z,7.30
2019-02-12T15:09:06.891Z,7.30
2019-02-12T15:11:36.794Z,7.20
2019-02-12T15:14:06.538Z,7.20
2019-02-12T15:16:36.500Z,7.10
2019-02-12T15:19:06.391Z,7.10
2019-02-12T15:21:36.167Z,7.20
2019-02-12T15:24:07.767Z,7.10
2019-02-12T15:26:37.479Z,7.00
2019-02-12T15:29:07.280Z,7.00
2019-02-12T15:31:37.092Z,7.10
2019-02-12T15:34:06.816Z,7.10
2019-02-12T15:36:36.702Z,7.00
2019-02-12T15:39:06.625Z,7.00
2019-02-12T15:41:36.454Z,7.00
2019-02-12T15:44:06.251Z,7.00
2019-02-12T15:46:35.976Z,7.00
2019-02-12T15:49:05.742Z,6.90
2019-02-12T15:51:35.618Z,6.80
2019-02-12T15:54:05.463Z,6.80
2019-02-12T15:56:35.283Z,6.70
2019-02-12T15:59:05.067Z,6.70
2019-02-12T16:01:34.843Z,6.70
2019-02-12T16:04:05.080Z,6.70
2019-02-12T16:06:34.770Z,6.70
2019-02-12T16:09:05.475Z,6.60
2019-02-12T16:11:36.905Z,6.60
2019-02-12T16:14:10.691Z,6.60
2019-02-12T16:16:40.565Z,6.60
2019-02-12T16:19:10.409Z,6.60
2019-02-12T16:21:40.396Z,6.50
2019-02-12T16:24:10.175Z,6.50
2019-02-12T16:26:40.049Z,6.50
2019-02-12T16:29:09.911Z,6.50
2019-02-12T16:31:39.677Z,6.30
2019-02-12T16:34:09.523Z,6.30
2019-02-12T16:36:39.378Z,6.20
2019-02-12T16:39:09.137Z,6.20
2019-02-12T16:41:38.923Z,6.20
2019-02-12T16:44:08.882Z,6.20
2019-02-12T16:46:38.809Z,6.20
2019-02-12T16:49:08.678Z,6.10
2019-02-12T16:51:38.439Z,6.20
2019-02-12T16:54:08.448Z,6.20
2019-02-12T16:56:39.340Z,6.20
2019-02-12T16:59:09.218Z,6.20
2019-02-12T17:01:39.045Z,6.20
2019-02-12T17:04:08.755Z,6.20
2019-02-12T17:06:38.610Z,6.20
2019-02-12T17:09:08.333Z,6.20
2019-02-12T17:11:38.145Z,6.20
2019-02-12T17:14:08.009Z,6.20
2019-02-12T17:16:38.791Z,6.20
2019-02-12T17:19:08.530Z,6.20
2019-02-12T17:21:38.386Z,6.20
2019-02-12T17:24:08.193Z,6.20
2019-02-12T17:26:38.010Z,6.20
2019-02-12T17:29:07.891Z,6.20
2019-02-12T17:31:37.755Z,6.20
2019-02-12T17:34:07.446Z,6.20
2019-02-12T17:36:37.413Z,6.20
2019-02-12T17:39:07.711Z,6.20
2019-02-12T17:41:39.100Z,6.20
2019-02-12T17:44:08.932Z,6.20
2019-02-12T17:46:38.724Z,6.20
2019-02-12T17:49:08.583Z,6.20
2019-02-12T17:51:38.281Z,6.20
2019-02-12T17:54:09.507Z,6.30
2019-02-12T17:56:39.339Z,6.30
2019-02-12T17:59:09.117Z,6.20
2019-02-12T18:01:39.831Z,6.20
2019-02-12T18:04:09.609Z,6.20
2019-02-12T18:06:39.386Z,6.20
2019-02-12T18:09:09.237Z,6.10
2019-02-12T18:11:38.935Z,6.20
2019-02-12T18:14:08.679Z,6.10
2019-02-12T18:16:38.378Z,6.10
2019-02-12T18:19:08.146Z,6.10
2019-02-12T18:21:37.923Z,6.00
2019-02-12T18:24:07.716Z,6.10
2019-02-12T18:26:37.547Z,6.00
2019-02-12T18:29:07.370Z,5.90
2019-02-12T18:31:37.221Z,5.80
2019-02-12T18:34:06.940Z,5.70
2019-02-12T18:36:36.694Z,5.70
2019-02-12T18:39:07.075Z,5.60
2019-02-12T18:41:36.851Z,5.50
2019-02-12T18:44:06.623Z,5.40
2019-02-12T18:46:36.373Z,5.40
2019-02-12T18:49:06.239Z,5.30
2019-02-12T18:51:37.039Z,5.20
2019-02-12T18:54:06.751Z,5.10
2019-02-12T18:56:41.414Z,5.00
2019-02-12T18:59:08.154Z,5.00
2019-02-12T19:01:37.842Z,4.90
2019-02-12T19:04:07.737Z,4.90
2019-02-12T19:06:37.519Z,4.80
2019-02-12T19:09:12.179Z,4.80
2019-02-12T19:11:52.633Z,4.80
2019-02-12T19:14:14.453Z,5.00
2019-02-12T19:16:44.197Z,5.20
2019-02-12T19:19:13.980Z,5.20
2019-02-12T19:21:43.734Z,5.30
2019-02-12T19:24:13.443Z,5.40
2019-02-12T19:26:49.777Z,5.40
2019-02-12T19:29:14.701Z,5.50
2019-02-12T19:31:44.570Z,5.60
2019-02-12T19:34:15.302Z,5.70
2019-02-12T19:36:45.136Z,5.70
2019-02-12T19:39:14.811Z,5.60
2019-02-12T19:41:44.518Z,5.60
2019-02-12T19:44:14.236Z,5.60
2019-02-12T19:46:43.898Z,5.60
2019-02-12T19:49:13.584Z,5.60
2019-02-12T19:51:43.283Z,5.60
2019-02-12T19:54:12.974Z,5.60
2019-02-12T19:56:42.795Z,5.60
2019-02-12T19:59:12.883Z,5.70
2019-02-12T20:01:42.543Z,5.70
2019-02-12T20:04:12.325Z,5.70
2019-02-12T20:06:42.018Z,5.60
2019-02-12T20:09:21.091Z,5.50
2019-02-12T20:11:50.770Z,5.50
2019-02-12T20:14:20.476Z,5.40
2019-02-12T20:16:50.224Z,5.40
2019-02-12T20:19:20.015Z,5.30
2019-02-12T20:21:49.678Z,5.30
2019-02-12T20:24:19.383Z,5.30
2019-02-12T20:26:49.106Z,5.20
2019-02-12T20:29:18.867Z,5.20
2019-02-12T20:31:48.579Z,5.10
2019-02-12T20:34:18.342Z,4.90
2019-02-12T20:36:48.163Z,4.90
2019-02-12T20:39:17.843Z,4.80
2019-02-12T20:41:47.561Z,4.60
2019-02-12T20:44:17.363Z,4.60
2019-02-12T20:46:47.072Z,4.50
2019-02-12T20:49:16.839Z,4.60
2019-02-12T20:51:46.615Z,4.50
2019-02-12T20:54:16.273Z,4.50
2019-02-12T20:56:45.978Z,4.50
2019-02-12T20:59:15.652Z,4.40
2019-02-12T21:01:45.354Z,4.40
2019-02-12T21:04:15.014Z,4.40
2019-02-12T21:06:44.870Z,4.30
2019-02-12T21:09:14.634Z,4.30
2019-02-12T21:11:44.424Z,4.20
2019-02-12T21:14:14.245Z,4.20
2019-02-12T21:16:43.943Z,4.10
2019-02-12T21:19:13.617Z,4.10
2019-02-12T21:21:43.390Z,4.10
2019-02-12T21:24:13.182Z,4.10
2019-02-12T21:26:42.963Z,4.00
2019-02-12T21:29:12.646Z,4.00
2019-02-12T21:31:42.495Z,4.00
2019-02-12T21:34:12.179Z,3.90
2019-02-12T21:36:41.875Z,3.90
2019-02-12T21:39:12.211Z,3.80
2019-02-12T21:41:42.055Z,3.70
2019-02-12T21:44:11.716Z,3.70
2019-02-12T21:46:43.223Z,3.70
2019-02-12T21:49:12.846Z,3.70
2019-02-12T21:51:42.525Z,3.60
2019-02-12T21:54:12.267Z,3.60
2019-02-12T21:56:41.986Z,3.50
2019-02-12T21:59:11.736Z,3.50
2019-02-12T22:01:41.499Z,3.50
2019-02-12T22:04:11.284Z,3.50
2019-02-12T22:06:41.099Z,3.40
2019-02-12T22:09:10.762Z,3.40
2019-02-12T22:11:40.498Z,3.40
2019-02-12T22:14:10.175Z,3.40
2019-02-12T22:16:39.886Z,3.40
2019-02-12T22:19:09.551Z,3.40
2019-02-12T22:21:39.238Z,3.40
2019-02-12T22:24:08.920Z,3.30
2019-02-12T22:26:38.741Z,3.30
2019-02-12T22:29:08.410Z,3.30
2019-02-12T22:31:38.099Z,3.20
2019-02-12T22:34:07.793Z,3.10
2019-02-12T22:36:37.559Z,3.10
2019-02-12T22:39:07.595Z,3.10
2019-02-12T22:41:37.558Z,3.00
2019-02-12T22:44:07.294Z,3.00
2019-02-12T22:46:36.957Z,3.00
2019-02-12T22:49:06.643Z,3.00
2019-02-12T22:51:36.324Z,2.90
2019-02-12T22:54:06.570Z,2.90
2019-02-12T22:56:36.325Z,2.90
2019-02-12T22:59:06.086Z,2.80
2019-02-12T23:01:39.862Z,2.80
2019-02-12T23:04:09.682Z,2.70
2019-02-12T23:06:39.367Z,2.80
2019-02-12T23:09:19.003Z,2.70
2019-02-12T23:11:48.787Z,2.70
2019-02-12T23:14:18.582Z,2.70
2019-02-12T23:16:48.355Z,2.70
2019-02-12T23:19:18.024Z,2.60
2019-02-12T23:21:48.671Z,2.60
2019-02-12T23:24:18.321Z,2.60
2019-02-12T23:26:48.006Z,2.60
2019-02-12T23:29:17.839Z,2.60
2019-02-12T23:31:47.581Z,2.60
2019-02-12T23:34:17.279Z,2.60
2019-02-12T23:36:47.080Z,2.70
2019-02-12T23:39:16.746Z,2.70
2019-02-12T23:41:46.434Z,2.70
2019-02-12T23:44:16.111Z,2.70
2019-02-12T23:46:45.785Z,2.80
2019-02-12T23:49:15.478Z,2.70
2019-02-12T23:51:45.151Z,2.80
2019-02-12T23:54:14.935Z,2.70
2019-02-12T23:56:44.606Z,2.70
2019-02-12T23:59:14.315Z,2.70
